sensor_id;sensor_type;location;lat;lon;timestamp;pressure;altitude;pressure_sealevel;temperature
69785;BMP280;14177;51.520;6.764;2023-06-19T00:01:32;100513.81;;;24.88
69785;BMP280;14177;51.520;6.764;2023-06-19T00:04:00;100524.56;;;24.87
69785;BMP280;14177;51.520;6.764;2023-06-19T00:06:28;100517.88;;;24.83
69785;BMP280;14177;51.520;6.764;2023-06-19T00:09:03;100512.56;;;24.83
69785;BMP280;14177;51.520;6.764;2023-06-19T00:11:44;100514.53;;;24.81
69785;BMP280;14177;51.520;6.764;2023-06-19T00:14:13;100511.16;;;24.79
69785;BMP280;14177;51.520;6.764;2023-06-19T00:16:41;100518.75;;;24.74
69785;BMP280;14177;51.520;6.764;2023-06-19T00:19:10;100515.53;;;24.70
69785;BMP280;14177;51.520;6.764;2023-06-19T00:22:09;100521.13;;;24.67
69785;BMP280;14177;51.520;6.764;2023-06-19T00:24:36;100523.38;;;24.63
69785;BMP280;14177;51.520;6.764;2023-06-19T00:27:04;100520.88;;;24.61
69785;BMP280;14177;51.520;6.764;2023-06-19T00:29:34;100515.41;;;24.63
69785;BMP280;14177;51.520;6.764;2023-06-19T00:32:08;100524.78;;;24.57
69785;BMP280;14177;51.520;6.764;2023-06-19T00:34:36;100532.06;;;24.55
69785;BMP280;14177;51.520;6.764;2023-06-19T00:37:04;100525.34;;;24.51
69785;BMP280;14177;51.520;6.764;2023-06-19T00:39:32;100532.63;;;24.49
69785;BMP280;14177;51.520;6.764;2023-06-19T00:42:02;100533.16;;;24.53
69785;BMP280;14177;51.520;6.764;2023-06-19T00:44:30;100531.31;;;24.44
69785;BMP280;14177;51.520;6.764;2023-06-19T00:47:02;100527.97;;;24.42
69785;BMP280;14177;51.520;6.764;2023-06-19T00:49:31;100536.25;;;24.39
69785;BMP280;14177;51.520;6.764;2023-06-19T00:51:59;100532.72;;;24.38
69785;BMP280;14177;51.520;6.764;2023-06-19T00:54:30;100544.47;;;24.36
69785;BMP280;14177;51.520;6.764;2023-06-19T00:56:57;100554.94;;;24.37
69785;BMP280;14177;51.520;6.764;2023-06-19T00:59:26;100553.81;;;24.30
69785;BMP280;14177;51.520;6.764;2023-06-19T01:01:54;100556.63;;;24.29
69785;BMP280;14177;51.520;6.764;2023-06-19T01:04:21;100552.69;;;24.23
69785;BMP280;14177;51.520;6.764;2023-06-19T01:07:01;100541.81;;;24.17
69785;BMP280;14177;51.520;6.764;2023-06-19T01:12:34;100554.50;;;24.13
69785;BMP280;14177;51.520;6.764;2023-06-19T01:15:04;100556.47;;;24.11
69785;BMP280;14177;51.520;6.764;2023-06-19T01:17:33;100559.53;;;24.07
69785;BMP280;14177;51.520;6.764;2023-06-19T01:20:03;100560.63;;;24.04
69785;BMP280;14177;51.520;6.764;2023-06-19T01:22:38;100561.91;;;24.00
69785;BMP280;14177;51.520;6.764;2023-06-19T01:25:07;100553.38;;;23.97
69785;BMP280;14177;51.520;6.764;2023-06-19T01:27:35;100562.47;;;23.94
69785;BMP280;14177;51.520;6.764;2023-06-19T01:30:04;100547.78;;;23.90
69785;BMP280;14177;51.520;6.764;2023-06-19T01:32:56;100548.06;;;23.87
69785;BMP280;14177;51.520;6.764;2023-06-19T01:35:35;100552.06;;;23.82
69785;BMP280;14177;51.520;6.764;2023-06-19T01:38:03;100552.22;;;23.80
69785;BMP280;14177;51.520;6.764;2023-06-19T01:40:33;100543.22;;;23.72
69785;BMP280;14177;51.520;6.764;2023-06-19T01:43:02;100543.78;;;23.66
69785;BMP280;14177;51.520;6.764;2023-06-19T01:45:32;100536.50;;;23.58
69785;BMP280;14177;51.520;6.764;2023-06-19T01:48:00;100540.13;;;23.57
69785;BMP280;14177;51.520;6.764;2023-06-19T01:50:28;100540.38;;;23.54
69785;BMP280;14177;51.520;6.764;2023-06-19T01:52:56;100539.41;;;23.46
69785;BMP280;14177;51.520;6.764;2023-06-19T01:55:25;100541.47;;;23.42
69785;BMP280;14177;51.520;6.764;2023-06-19T01:57:57;100552.22;;;23.41
69785;BMP280;14177;51.520;6.764;2023-06-19T02:00:37;100554.28;;;23.38
69785;BMP280;14177;51.520;6.764;2023-06-19T02:03:05;100556.91;;;23.38
69785;BMP280;14177;51.520;6.764;2023-06-19T02:05:35;100558.16;;;23.34
69785;BMP280;14177;51.520;6.764;2023-06-19T02:08:07;100559.81;;;23.25
69785;BMP280;14177;51.520;6.764;2023-06-19T02:10:36;100561.19;;;23.20
69785;BMP280;14177;51.520;6.764;2023-06-19T02:13:03;100566.75;;;23.17
69785;BMP280;14177;51.520;6.764;2023-06-19T02:15:46;100569.78;;;23.12
69785;BMP280;14177;51.520;6.764;2023-06-19T02:18:14;100574.50;;;23.09
69785;BMP280;14177;51.520;6.764;2023-06-19T02:20:45;100573.75;;;23.07
69785;BMP280;14177;51.520;6.764;2023-06-19T02:23:27;100574.75;;;23.06
69785;BMP280;14177;51.520;6.764;2023-06-19T02:25:56;100583.38;;;23.08
69785;BMP280;14177;51.520;6.764;2023-06-19T02:28:23;100601.22;;;23.06
69785;BMP280;14177;51.520;6.764;2023-06-19T02:30:54;100601.94;;;23.08
69785;BMP280;14177;51.520;6.764;2023-06-19T02:33:30;100607.22;;;23.08
69785;BMP280;14177;51.520;6.764;2023-06-19T02:36:00;100615.94;;;23.10
69785;BMP280;14177;51.520;6.764;2023-06-19T02:38:27;100618.31;;;23.13
69785;BMP280;14177;51.520;6.764;2023-06-19T02:41:10;100620.97;;;23.13
69785;BMP280;14177;51.520;6.764;2023-06-19T02:43:41;100626.72;;;23.18
69785;BMP280;14177;51.520;6.764;2023-06-19T02:46:15;100632.06;;;23.27
69785;BMP280;14177;51.520;6.764;2023-06-19T02:48:43;100633.34;;;23.33
69785;BMP280;14177;51.520;6.764;2023-06-19T02:51:15;100632.69;;;23.40
69785;BMP280;14177;51.520;6.764;2023-06-19T02:53:56;100633.78;;;23.38
69785;BMP280;14177;51.520;6.764;2023-06-19T02:56:38;100626.28;;;23.42
69785;BMP280;14177;51.520;6.764;2023-06-19T02:59:07;100646.94;;;23.48
69785;BMP280;14177;51.520;6.764;2023-06-19T03:01:35;100648.06;;;23.46
69785;BMP280;14177;51.520;6.764;2023-06-19T03:04:04;100650.97;;;23.43
69785;BMP280;14177;51.520;6.764;2023-06-19T03:06:45;100647.81;;;23.49
69785;BMP280;14177;51.520;6.764;2023-06-19T03:09:12;100654.72;;;23.40
69785;BMP280;14177;51.520;6.764;2023-06-19T03:11:53;100655.13;;;23.36
69785;BMP280;14177;51.520;6.764;2023-06-19T03:14:35;100657.47;;;23.30
69785;BMP280;14177;51.520;6.764;2023-06-19T03:17:04;100652.44;;;23.27
69785;BMP280;14177;51.520;6.764;2023-06-19T03:19:40;100650.41;;;23.19
69785;BMP280;14177;51.520;6.764;2023-06-19T03:22:22;100644.56;;;23.16
69785;BMP280;14177;51.520;6.764;2023-06-19T03:24:51;100648.88;;;23.17
69785;BMP280;14177;51.520;6.764;2023-06-19T03:27:21;100652.59;;;23.14
69785;BMP280;14177;51.520;6.764;2023-06-19T03:29:58;100667.69;;;23.14
69785;BMP280;14177;51.520;6.764;2023-06-19T03:32:35;100665.06;;;23.03
69785;BMP280;14177;51.520;6.764;2023-06-19T03:35:24;100648.13;;;22.94
69785;BMP280;14177;51.520;6.764;2023-06-19T03:37:56;100667.75;;;22.92
69785;BMP280;14177;51.520;6.764;2023-06-19T03:40:32;100679.31;;;22.91
69785;BMP280;14177;51.520;6.764;2023-06-19T03:43:13;100680.22;;;22.80
69785;BMP280;14177;51.520;6.764;2023-06-19T03:45:43;100686.13;;;22.73
69785;BMP280;14177;51.520;6.764;2023-06-19T03:48:10;100691.91;;;22.67
69785;BMP280;14177;51.520;6.764;2023-06-19T03:50:39;100688.38;;;22.57
69785;BMP280;14177;51.520;6.764;2023-06-19T03:53:07;100696.66;;;22.52
69785;BMP280;14177;51.520;6.764;2023-06-19T03:55:37;100701.38;;;22.49
69785;BMP280;14177;51.520;6.764;2023-06-19T03:58:04;100695.47;;;22.45
69785;BMP280;14177;51.520;6.764;2023-06-19T04:00:47;100704.63;;;22.41
69785;BMP280;14177;51.520;6.764;2023-06-19T04:03:18;100713.91;;;22.36
69785;BMP280;14177;51.520;6.764;2023-06-19T04:05:50;100725.91;;;22.29
69785;BMP280;14177;51.520;6.764;2023-06-19T04:08:26;100727.38;;;22.22
69785;BMP280;14177;51.520;6.764;2023-06-19T04:11:10;100743.63;;;22.17
69785;BMP280;14177;51.520;6.764;2023-06-19T04:13:40;100742.19;;;22.13
69785;BMP280;14177;51.520;6.764;2023-06-19T04:16:21;100747.34;;;22.15
69785;BMP280;14177;51.520;6.764;2023-06-19T04:19:03;100762.00;;;22.08
69785;BMP280;14177;51.520;6.764;2023-06-19T04:21:47;100762.47;;;22.02
69785;BMP280;14177;51.520;6.764;2023-06-19T04:24:18;100766.69;;;21.94
69785;BMP280;14177;51.520;6.764;2023-06-19T04:26:46;100767.16;;;21.88
69785;BMP280;14177;51.520;6.764;2023-06-19T04:29:15;100758.38;;;21.76
69785;BMP280;14177;51.520;6.764;2023-06-19T04:31:45;100759.59;;;21.72
69785;BMP280;14177;51.520;6.764;2023-06-19T04:34:19;100768.81;;;21.67
69785;BMP280;14177;51.520;6.764;2023-06-19T04:36:50;100760.28;;;21.63
69785;BMP280;14177;51.520;6.764;2023-06-19T04:39:26;100766.53;;;21.62
69785;BMP280;14177;51.520;6.764;2023-06-19T04:41:55;100766.75;;;21.59
69785;BMP280;14177;51.520;6.764;2023-06-19T04:44:36;100765.66;;;21.62
69785;BMP280;14177;51.520;6.764;2023-06-19T04:47:03;100769.19;;;21.62
69785;BMP280;14177;51.520;6.764;2023-06-19T04:49:30;100779.63;;;21.64
69785;BMP280;14177;51.520;6.764;2023-06-19T04:51:57;100779.03;;;21.60
69785;BMP280;14177;51.520;6.764;2023-06-19T04:54:25;100775.84;;;21.55
69785;BMP280;14177;51.520;6.764;2023-06-19T04:56:52;100792.91;;;21.51
69785;BMP280;14177;51.520;6.764;2023-06-19T04:59:20;100790.13;;;21.53
69785;BMP280;14177;51.520;6.764;2023-06-19T05:01:47;100787.59;;;21.51
69785;BMP280;14177;51.520;6.764;2023-06-19T05:04:14;100790.03;;;21.54
69785;BMP280;14177;51.520;6.764;2023-06-19T05:06:41;100797.31;;;21.51
69785;BMP280;14177;51.520;6.764;2023-06-19T05:09:09;100795.41;;;21.53
69785;BMP280;14177;51.520;6.764;2023-06-19T05:11:37;100804.44;;;21.50
69785;BMP280;14177;51.520;6.764;2023-06-19T05:14:04;100810.22;;;21.55
69785;BMP280;14177;51.520;6.764;2023-06-19T05:16:31;100806.47;;;21.58
69785;BMP280;14177;51.520;6.764;2023-06-19T05:19:02;100821.31;;;21.60
69785;BMP280;14177;51.520;6.764;2023-06-19T05:21:29;100817.47;;;21.64
69785;BMP280;14177;51.520;6.764;2023-06-19T05:23:56;100832.16;;;21.68
69785;BMP280;14177;51.520;6.764;2023-06-19T05:26:23;100835.75;;;21.67
69785;BMP280;14177;51.520;6.764;2023-06-19T05:28:50;100832.38;;;21.65
69785;BMP280;14177;51.520;6.764;2023-06-19T05:31:16;100839.22;;;21.68
69785;BMP280;14177;51.520;6.764;2023-06-19T05:33:45;100827.81;;;21.67
69785;BMP280;14177;51.520;6.764;2023-06-19T05:36:12;100834.56;;;21.71
69785;BMP280;14177;51.520;6.764;2023-06-19T05:38:38;100833.69;;;21.71
69785;BMP280;14177;51.520;6.764;2023-06-19T05:41:05;100829.28;;;21.71
69785;BMP280;14177;51.520;6.764;2023-06-19T05:43:33;100825.91;;;21.69
69785;BMP280;14177;51.520;6.764;2023-06-19T05:46:00;100824.94;;;21.70
69785;BMP280;14177;51.520;6.764;2023-06-19T05:48:29;100823.25;;;21.69
69785;BMP280;14177;51.520;6.764;2023-06-19T05:50:55;100831.06;;;21.71
69785;BMP280;14177;51.520;6.764;2023-06-19T05:53:22;100830.47;;;21.67
69785;BMP280;14177;51.520;6.764;2023-06-19T05:55:50;100835.25;;;21.62
69785;BMP280;14177;51.520;6.764;2023-06-19T05:58:17;100834.41;;;21.62
69785;BMP280;14177;51.520;6.764;2023-06-19T06:00:47;100838.41;;;21.67
69785;BMP280;14177;51.520;6.764;2023-06-19T06:03:14;100829.75;;;21.65
69785;BMP280;14177;51.520;6.764;2023-06-19T06:05:41;100837.66;;;21.65
69785;BMP280;14177;51.520;6.764;2023-06-19T06:08:08;100843.91;;;21.64
69785;BMP280;14177;51.520;6.764;2023-06-19T06:10:36;100842.22;;;21.63
69785;BMP280;14177;51.520;6.764;2023-06-19T06:13:02;100846.56;;;21.64
69785;BMP280;14177;51.520;6.764;2023-06-19T06:15:29;100852.56;;;21.66
69785;BMP280;14177;51.520;6.764;2023-06-19T06:17:56;100858.47;;;21.70
69785;BMP280;14177;51.520;6.764;2023-06-19T06:20:23;100857.25;;;21.74
69785;BMP280;14177;51.520;6.764;2023-06-19T06:22:50;100862.81;;;21.82
69785;BMP280;14177;51.520;6.764;2023-06-19T06:25:17;100861.50;;;21.87
69785;BMP280;14177;51.520;6.764;2023-06-19T06:27:44;100865.59;;;21.91
69785;BMP280;14177;51.520;6.764;2023-06-19T06:30:12;100868.50;;;21.99
69785;BMP280;14177;51.520;6.764;2023-06-19T06:32:39;100866.03;;;22.09
69785;BMP280;14177;51.520;6.764;2023-06-19T06:35:07;100873.13;;;22.19
69785;BMP280;14177;51.520;6.764;2023-06-19T06:37:33;100871.19;;;22.21
69785;BMP280;14177;51.520;6.764;2023-06-19T06:40:00;100868.41;;;22.22
69785;BMP280;14177;51.520;6.764;2023-06-19T06:42:27;100870.72;;;22.27
69785;BMP280;14177;51.520;6.764;2023-06-19T06:44:55;100866.88;;;22.31
69785;BMP280;14177;51.520;6.764;2023-06-19T06:47:21;100867.34;;;22.25
69785;BMP280;14177;51.520;6.764;2023-06-19T06:49:48;100873.38;;;22.27
69785;BMP280;14177;51.520;6.764;2023-06-19T06:52:15;100873.66;;;22.35
69785;BMP280;14177;51.520;6.764;2023-06-19T06:54:42;100879.53;;;22.38
69785;BMP280;14177;51.520;6.764;2023-06-19T06:57:09;100876.78;;;22.40
69785;BMP280;14177;51.520;6.764;2023-06-19T06:59:36;100883.78;;;22.41
69785;BMP280;14177;51.520;6.764;2023-06-19T07:02:03;100890.84;;;22.40
69785;BMP280;14177;51.520;6.764;2023-06-19T07:04:30;100903.84;;;22.43
69785;BMP280;14177;51.520;6.764;2023-06-19T07:06:58;100898.88;;;22.28
69785;BMP280;14177;51.520;6.764;2023-06-19T07:09:25;100906.09;;;22.26
69785;BMP280;14177;51.520;6.764;2023-06-19T07:11:52;100908.25;;;22.21
69785;BMP280;14177;51.520;6.764;2023-06-19T07:14:20;100900.44;;;22.19
69785;BMP280;14177;51.520;6.764;2023-06-19T07:16:49;100908.72;;;22.26
69785;BMP280;14177;51.520;6.764;2023-06-19T07:19:17;100914.75;;;22.28
69785;BMP280;14177;51.520;6.764;2023-06-19T07:21:44;100926.44;;;22.36
69785;BMP280;14177;51.520;6.764;2023-06-19T07:24:11;100925.34;;;22.28
69785;BMP280;14177;51.520;6.764;2023-06-19T07:26:38;100930.59;;;22.17
69785;BMP280;14177;51.520;6.764;2023-06-19T07:29:05;100929.59;;;22.07
69785;BMP280;14177;51.520;6.764;2023-06-19T07:31:32;100940.09;;;22.09
69785;BMP280;14177;51.520;6.764;2023-06-19T07:33:59;100927.94;;;22.17
69785;BMP280;14177;51.520;6.764;2023-06-19T07:36:26;100936.75;;;22.28
69785;BMP280;14177;51.520;6.764;2023-06-19T07:38:52;100924.00;;;22.33
69785;BMP280;14177;51.520;6.764;2023-06-19T07:41:19;100919.38;;;22.37
69785;BMP280;14177;51.520;6.764;2023-06-19T07:43:46;100923.47;;;22.41
69785;BMP280;14177;51.520;6.764;2023-06-19T07:46:14;100922.75;;;22.39
69785;BMP280;14177;51.520;6.764;2023-06-19T07:48:42;100930.94;;;22.47
69785;BMP280;14177;51.520;6.764;2023-06-19T07:51:09;100932.50;;;22.60
69785;BMP280;14177;51.520;6.764;2023-06-19T07:53:36;100927.78;;;22.64
69785;BMP280;14177;51.520;6.764;2023-06-19T07:56:04;100931.16;;;22.66
69785;BMP280;14177;51.520;6.764;2023-06-19T07:58:31;100925.63;;;22.69
69785;BMP280;14177;51.520;6.764;2023-06-19T08:00:58;100927.22;;;22.71
69785;BMP280;14177;51.520;6.764;2023-06-19T08:03:25;100926.84;;;22.76
69785;BMP280;14177;51.520;6.764;2023-06-19T08:05:53;100933.09;;;22.86
69785;BMP280;14177;51.520;6.764;2023-06-19T08:08:20;100931.41;;;22.85
69785;BMP280;14177;51.520;6.764;2023-06-19T08:10:47;100939.59;;;22.82
69785;BMP280;14177;51.520;6.764;2023-06-19T08:13:14;100938.28;;;22.87
69785;BMP280;14177;51.520;6.764;2023-06-19T08:15:41;100935.03;;;23.06
69785;BMP280;14177;51.520;6.764;2023-06-19T08:18:07;100929.47;;;23.31
69785;BMP280;14177;51.520;6.764;2023-06-19T08:20:35;100930.63;;;23.38
69785;BMP280;14177;51.520;6.764;2023-06-19T08:23:02;100930.13;;;23.43
69785;BMP280;14177;51.520;6.764;2023-06-19T08:25:32;100922.28;;;23.53
69785;BMP280;14177;51.520;6.764;2023-06-19T08:27:59;100916.09;;;23.63
69785;BMP280;14177;51.520;6.764;2023-06-19T08:30:26;100922.13;;;23.65
69785;BMP280;14177;51.520;6.764;2023-06-19T08:32:53;100911.13;;;23.70
69785;BMP280;14177;51.520;6.764;2023-06-19T08:35:20;100915.09;;;23.75
69785;BMP280;14177;51.520;6.764;2023-06-19T08:37:47;100923.66;;;23.79
69785;BMP280;14177;51.520;6.764;2023-06-19T08:40:15;100915.69;;;23.79
69785;BMP280;14177;51.520;6.764;2023-06-19T08:42:42;100923.28;;;23.83
69785;BMP280;14177;51.520;6.764;2023-06-19T08:45:11;100931.19;;;23.94
69785;BMP280;14177;51.520;6.764;2023-06-19T08:47:40;100929.88;;;24.09
69785;BMP280;14177;51.520;6.764;2023-06-19T08:50:07;100923.81;;;24.18
69785;BMP280;14177;51.520;6.764;2023-06-19T08:52:34;100934.53;;;24.37
69785;BMP280;14177;51.520;6.764;2023-06-19T08:55:03;100930.91;;;24.38
69785;BMP280;14177;51.520;6.764;2023-06-19T08:57:35;100933.53;;;24.49
69785;BMP280;14177;51.520;6.764;2023-06-19T09:00:03;100941.03;;;24.44
69785;BMP280;14177;51.520;6.764;2023-06-19T09:02:42;100953.56;;;24.42
69785;BMP280;14177;51.520;6.764;2023-06-19T09:05:18;100941.53;;;24.38
69785;BMP280;14177;51.520;6.764;2023-06-19T09:07:57;100949.50;;;24.38
69785;BMP280;14177;51.520;6.764;2023-06-19T09:10:24;100940.56;;;24.60
69785;BMP280;14177;51.520;6.764;2023-06-19T09:13:03;100937.84;;;24.80
69785;BMP280;14177;51.520;6.764;2023-06-19T09:15:35;100944.66;;;25.03
69785;BMP280;14177;51.520;6.764;2023-06-19T09:18:09;100940.44;;;25.21
69785;BMP280;14177;51.520;6.764;2023-06-19T09:20:41;100939.19;;;25.25
69785;BMP280;14177;51.520;6.764;2023-06-19T09:23:12;100936.63;;;25.23
69785;BMP280;14177;51.520;6.764;2023-06-19T09:25:47;100929.59;;;25.13
69785;BMP280;14177;51.520;6.764;2023-06-19T09:28:25;100949.75;;;25.15
69785;BMP280;14177;51.520;6.764;2023-06-19T09:31:01;100950.34;;;25.19
69785;BMP280;14177;51.520;6.764;2023-06-19T09:33:33;100948.44;;;25.40
69785;BMP280;14177;51.520;6.764;2023-06-19T09:36:04;100948.59;;;25.57
69785;BMP280;14177;51.520;6.764;2023-06-19T09:38:38;100942.06;;;25.90
69785;BMP280;14177;51.520;6.764;2023-06-19T09:41:10;100951.56;;;26.11
69785;BMP280;14177;51.520;6.764;2023-06-19T09:43:47;100951.59;;;26.20
69785;BMP280;14177;51.520;6.764;2023-06-19T09:46:18;100943.03;;;26.17
69785;BMP280;14177;51.520;6.764;2023-06-19T09:48:47;100950.75;;;26.10
69785;BMP280;14177;51.520;6.764;2023-06-19T09:51:20;100954.53;;;25.98
69785;BMP280;14177;51.520;6.764;2023-06-19T09:53:51;100957.88;;;25.91
69785;BMP280;14177;51.520;6.764;2023-06-19T09:56:18;100958.03;;;25.90
69785;BMP280;14177;51.520;6.764;2023-06-19T09:58:51;100978.19;;;25.83
69785;BMP280;14177;51.520;6.764;2023-06-19T10:01:20;100967.81;;;25.80
69785;BMP280;14177;51.520;6.764;2023-06-19T10:03:47;100970.38;;;25.81
69785;BMP280;14177;51.520;6.764;2023-06-19T10:06:16;100972.44;;;25.87
69785;BMP280;14177;51.520;6.764;2023-06-19T10:08:45;100971.91;;;26.02
69785;BMP280;14177;51.520;6.764;2023-06-19T10:11:13;100975.22;;;26.42
69785;BMP280;14177;51.520;6.764;2023-06-19T10:13:41;100970.81;;;26.70
69785;BMP280;14177;51.520;6.764;2023-06-19T10:16:23;100961.00;;;26.70
69785;BMP280;14177;51.520;6.764;2023-06-19T10:18:51;100966.53;;;26.96
69785;BMP280;14177;51.520;6.764;2023-06-19T10:21:20;100974.50;;;27.32
69785;BMP280;14177;51.520;6.764;2023-06-19T10:24:02;100981.38;;;27.79
69785;BMP280;14177;51.520;6.764;2023-06-19T10:26:34;100979.44;;;27.54
69785;BMP280;14177;51.520;6.764;2023-06-19T10:29:02;100976.78;;;27.27
69785;BMP280;14177;51.520;6.764;2023-06-19T10:31:39;100972.94;;;27.12
69785;BMP280;14177;51.520;6.764;2023-06-19T10:34:06;100977.72;;;26.99
69785;BMP280;14177;51.520;6.764;2023-06-19T10:36:33;100974.41;;;27.24
69785;BMP280;14177;51.520;6.764;2023-06-19T10:39:00;100971.31;;;27.73
69785;BMP280;14177;51.520;6.764;2023-06-19T10:41:26;100970.47;;;28.25
69785;BMP280;14177;51.520;6.764;2023-06-19T10:46:36;100965.94;;;28.25
69785;BMP280;14177;51.520;6.764;2023-06-19T10:49:05;100973.63;;;28.46
69785;BMP280;14177;51.520;6.764;2023-06-19T10:51:35;100966.00;;;28.51
69785;BMP280;14177;51.520;6.764;2023-06-19T10:54:02;100953.41;;;28.68
69785;BMP280;14177;51.520;6.764;2023-06-19T10:56:47;100945.19;;;28.87
69785;BMP280;14177;51.520;6.764;2023-06-19T10:59:15;100943.28;;;29.05
69785;BMP280;14177;51.520;6.764;2023-06-19T11:01:47;100949.31;;;29.07
69785;BMP280;14177;51.520;6.764;2023-06-19T11:04:15;100957.69;;;29.12
69785;BMP280;14177;51.520;6.764;2023-06-19T11:06:44;100947.53;;;29.24
69785;BMP280;14177;51.520;6.764;2023-06-19T11:09:13;100939.38;;;29.41
69785;BMP280;14177;51.520;6.764;2023-06-19T11:11:46;100928.06;;;29.55
69785;BMP280;14177;51.520;6.764;2023-06-19T11:14:15;100931.09;;;29.60
69785;BMP280;14177;51.520;6.764;2023-06-19T11:16:47;100934.97;;;29.97
69785;BMP280;14177;51.520;6.764;2023-06-19T11:19:18;100932.47;;;30.20
69785;BMP280;14177;51.520;6.764;2023-06-19T11:21:48;100924.41;;;30.52
69785;BMP280;14177;51.520;6.764;2023-06-19T11:24:16;100921.31;;;30.71
69785;BMP280;14177;51.520;6.764;2023-06-19T11:26:47;100936.91;;;30.75
69785;BMP280;14177;51.520;6.764;2023-06-19T11:29:21;100938.41;;;30.78
69785;BMP280;14177;51.520;6.764;2023-06-19T11:31:51;100943.59;;;30.87
69785;BMP280;14177;51.520;6.764;2023-06-19T11:34:32;100926.53;;;30.72
69785;BMP280;14177;51.520;6.764;2023-06-19T11:36:59;100928.09;;;30.59
69785;BMP280;14177;51.520;6.764;2023-06-19T11:39:28;100928.91;;;30.51
69785;BMP280;14177;51.520;6.764;2023-06-19T11:41:59;100929.09;;;30.58
69785;BMP280;14177;51.520;6.764;2023-06-19T11:44:27;100933.41;;;30.67
69785;BMP280;14177;51.520;6.764;2023-06-19T11:46:56;100937.13;;;30.42
69785;BMP280;14177;51.520;6.764;2023-06-19T11:49:25;100930.78;;;30.27
69785;BMP280;14177;51.520;6.764;2023-06-19T11:51:52;100933.59;;;30.41
69785;BMP280;14177;51.520;6.764;2023-06-19T11:54:20;100932.94;;;30.63
69785;BMP280;14177;51.520;6.764;2023-06-19T11:56:47;100933.56;;;30.73
69785;BMP280;14177;51.520;6.764;2023-06-19T11:59:15;100931.53;;;30.83
69785;BMP280;14177;51.520;6.764;2023-06-19T12:01:41;100939.34;;;30.93
69785;BMP280;14177;51.520;6.764;2023-06-19T12:04:08;100928.84;;;30.83
69785;BMP280;14177;51.520;6.764;2023-06-19T12:06:35;100924.31;;;30.84
69785;BMP280;14177;51.520;6.764;2023-06-19T12:09:03;100936.31;;;31.04
69785;BMP280;14177;51.520;6.764;2023-06-19T12:11:33;100940.69;;;30.97
69785;BMP280;14177;51.520;6.764;2023-06-19T12:14:00;100931.50;;;30.91
69785;BMP280;14177;51.520;6.764;2023-06-19T12:16:27;100937.75;;;30.76
69785;BMP280;14177;51.520;6.764;2023-06-19T12:18:55;100930.91;;;30.65
69785;BMP280;14177;51.520;6.764;2023-06-19T12:21:22;100928.75;;;30.45
69785;BMP280;14177;51.520;6.764;2023-06-19T12:24:04;100918.19;;;30.35
69785;BMP280;14177;51.520;6.764;2023-06-19T12:26:31;100908.88;;;30.07
69785;BMP280;14177;51.520;6.764;2023-06-19T12:29:05;100918.06;;;30.21
69785;BMP280;14177;51.520;6.764;2023-06-19T12:31:34;100923.56;;;30.27
69785;BMP280;14177;51.520;6.764;2023-06-19T12:34:01;100915.03;;;30.32
69785;BMP280;14177;51.520;6.764;2023-06-19T12:36:46;100926.06;;;30.53
69785;BMP280;14177;51.520;6.764;2023-06-19T12:39:13;100915.06;;;30.94
69785;BMP280;14177;51.520;6.764;2023-06-19T12:41:43;100920.94;;;31.28
69785;BMP280;14177;51.520;6.764;2023-06-19T12:44:10;100923.97;;;31.25
69785;BMP280;14177;51.520;6.764;2023-06-19T12:46:37;100926.06;;;31.07
69785;BMP280;14177;51.520;6.764;2023-06-19T12:49:04;100931.44;;;30.99
69785;BMP280;14177;51.520;6.764;2023-06-19T12:51:33;100925.94;;;30.93
69785;BMP280;14177;51.520;6.764;2023-06-19T12:54:00;100929.28;;;30.95
69785;BMP280;14177;51.520;6.764;2023-06-19T12:56:27;100927.69;;;31.24
69785;BMP280;14177;51.520;6.764;2023-06-19T12:58:54;100923.59;;;31.66
69785;BMP280;14177;51.520;6.764;2023-06-19T13:01:20;100929.94;;;32.10
69785;BMP280;14177;51.520;6.764;2023-06-19T13:03:48;100931.69;;;32.40
69785;BMP280;14177;51.520;6.764;2023-06-19T13:06:15;100930.88;;;32.54
69785;BMP280;14177;51.520;6.764;2023-06-19T13:08:42;100917.34;;;32.62
69785;BMP280;14177;51.520;6.764;2023-06-19T13:11:09;100922.66;;;32.84
69785;BMP280;14177;51.520;6.764;2023-06-19T13:13:36;100918.94;;;33.00
69785;BMP280;14177;51.520;6.764;2023-06-19T13:16:03;100914.69;;;32.76
69785;BMP280;14177;51.520;6.764;2023-06-19T13:18:30;100917.84;;;32.65
69785;BMP280;14177;51.520;6.764;2023-06-19T13:20:57;100921.69;;;32.48
69785;BMP280;14177;51.520;6.764;2023-06-19T13:23:23;100915.03;;;32.59
69785;BMP280;14177;51.520;6.764;2023-06-19T13:25:50;100911.13;;;32.61
69785;BMP280;14177;51.520;6.764;2023-06-19T13:28:17;100909.47;;;32.46
69785;BMP280;14177;51.520;6.764;2023-06-19T13:30:44;100910.28;;;32.32
69785;BMP280;14177;51.520;6.764;2023-06-19T13:33:11;100907.94;;;32.66
69785;BMP280;14177;51.520;6.764;2023-06-19T13:35:38;100899.53;;;32.90
69785;BMP280;14177;51.520;6.764;2023-06-19T13:38:05;100906.59;;;33.05
69785;BMP280;14177;51.520;6.764;2023-06-19T13:40:32;100897.94;;;33.24
69785;BMP280;14177;51.520;6.764;2023-06-19T13:42:59;100897.00;;;33.53
69785;BMP280;14177;51.520;6.764;2023-06-19T13:45:27;100892.69;;;33.73
69785;BMP280;14177;51.520;6.764;2023-06-19T13:47:54;100897.13;;;33.80
69785;BMP280;14177;51.520;6.764;2023-06-19T13:50:21;100898.19;;;33.85
69785;BMP280;14177;51.520;6.764;2023-06-19T13:52:48;100895.63;;;33.98
69785;BMP280;14177;51.520;6.764;2023-06-19T13:55:15;100896.56;;;33.91
69785;BMP280;14177;51.520;6.764;2023-06-19T13:57:43;100899.63;;;34.09
69785;BMP280;14177;51.520;6.764;2023-06-19T14:00:11;100886.28;;;34.01
69785;BMP280;14177;51.520;6.764;2023-06-19T14:02:39;100890.09;;;33.65
69785;BMP280;14177;51.520;6.764;2023-06-19T14:05:09;100887.50;;;33.57
69785;BMP280;14177;51.520;6.764;2023-06-19T14:07:36;100887.16;;;33.80
69785;BMP280;14177;51.520;6.764;2023-06-19T14:10:05;100886.00;;;33.89
69785;BMP280;14177;51.520;6.764;2023-06-19T14:12:32;100877.13;;;33.95
69785;BMP280;14177;51.520;6.764;2023-06-19T14:14:59;100889.69;;;34.09
69785;BMP280;14177;51.520;6.764;2023-06-19T14:17:26;100875.66;;;34.14